Airfield :
LOGIN :

Register | Disclaimer

   EN    FR    IT 

 










Legend :    VFR   Marginal VFR   IFR   Intensive IFR   Very Intensive IFR
Visi :
Ceiling :
>= 8 km
>= 3000ft
5 to 8 km
1000 to 3000 ft
1500m to 5 km
500 to 1000 ft
800 to 1500m
200 to 500 ft
< 800m
< 200 ft
Symbols :   Thunderstorms  Fog  Heavy snow  Heavy precipitations  Wind > 20 kt
SIGMETs :     Misc.  Thunderstorms  Icing  Turbulence  Mountain Waves  Volcanic Ashes






- Airport Elevation : 1247 ft
- IATA code : PRG


LKPR - Praha Ruzyne

CURRENT METAR :
  • 280300Z 24007KT CAVOK 14/13 Q1020 NOSIG

EXPIRED METARs :
  • 280230Z 23006KT CAVOK 14/13 Q1020 NOSIG
  • 280200Z 23006KT CAVOK 14/13 Q1020 NOSIG
  • 280130Z 24005KT CAVOK 14/13 Q1020 NOSIG
  • 280100Z 23006KT CAVOK 14/14 Q1020 NOSIG

TAF TAF LKPR
Valid from the 28 at 00:00 until the 29 at 06:00 UTC


272300Z 2800/2906 28006KT CAVOK
PROB30
TEMPO 2800/2807 3000 BR SCT009
BECMG 2809/2811 36008KT
PROB30
TEMPO 2812/2816 6000 SHRA SCT030TCU
BECMG 2820/2822 VRB02KT 2000 BR BKN007
TEMPO 2822/2906 0900 FG OVC003
PROB30
TEMPO 2822/2906 0400 FG OVC001



MET'MAP, your aeronautical weather chart ! - Copyright ORBIFLY December 2007 - Disclaimer

ORBIFLY MET'MAP TEAM :

Programming & Development : Alexandra Zaïnal
Concept & original design : Baudouin d'Aumeries
Assistance for programming : Marc-Olivier Méhu
Technical & hardware support : Manuel Goepfert

Contact : metmap@orbifly.com




SOURCES & CREDITS :

   NOAA